WEATHER DATA

TODAY
Time Temp. Dewp. Hum. Bar. 1h Prec. 24h Prec.
00:01 11 8.6 85 1014.2 0.0000 0.1000
00:11 11 8.8 86 1014.2 0.0000 0.1000
00:22 11 8.8 86 1014.3 0.0000 0.1000
00:31 11 8.8 86 1014.2 0.0000 0.1000
00:41 11.1 8.8 86 1014.2 0.0000 0.1000
00:52 11.1 8.8 86 1014.1 0.0000 0.1000
01:02 11.1 8.8 86 1014.1 0.0000 0.1000
01:12 11 8.8 86 1014.1 0.0000 0.1000
01:21 11 8.9 87 1014.2 0.0000 0.1000
01:32 10.9 8.8 87 1014 0.0000 0.1000
01:42 10.8 8.7 87 1014 0.0000 0.1000
01:52 10.7 8.6 87 1014.1 0.0000
02:02 10.6 8.5 87 1014.2 0.0000 0.0000
02:13 10.6 8.7 88 1014.2 0.0000 0.0000
02:22 10.6 8.7 88 1014.2 0.0000 0.0000
02:32 10.6 8.7 88 1014.1 0.0000 0.0000
02:43 10.5 8.6 88 1014 0.0000 0.0000
02:53 10.5 8.6 88 1014.1 0.0000 0.0000
03:03 10.5 8.6 88 1014.2 0.0000 0.0000
03:13 10.5 8.6 88 1014.2 0.0000 0.0000
03:24 10.5 8.8 89 1014.2 0.0000 0.0000
03:33 10.4 8.7 89 1014.3 0.0000 0.0000
03:43 10.4 8.7 89 1014.3 0.0000 0.0000
03:54 10.3 8.6 89 1014.2 0.0000 0.0000
04:04 10.3 8.6 89 1014 0.0000 0.0000
04:14 10.3 8.6 89 1014 0.0000 0.0000
04:24 10.3 8.6 89 1014 0.0000 0.0000
04:34 10.3 8.6 89 1014 0.0000 0.0000
04:44 10.3 8.6 89 1014.1 0.0000 0.0000
04:54 10.2 8.6 90 1014.1 0.0000 0.0000
05:04 10.3 8.7 90 1014 0.0000 0.0000
05:15 10.3 8.6 89 1014 0.0000 0.0000
05:25 10.3 8.6 89 1014 0.0000 0.0000
05:34 10.3 8.6 89 1014 0.0000 0.0000
05:45 10.3 8.6 89 1014 0.0000 0.0000
05:55 10.3 8.6 89 1013.9 0.0000 0.0000
06:05 10.2 8.5 89 1014 0.0000 0.0000
06:15 10.3 8.6 89 1013.9 0.0000 0.0000
06:26 10.3 8.6 89 1014 0.0000 0.0000
06:35 10.3 8.6 89 1013.9 0.0000 0.0000
06:45 10.3 8.6 89 1014 0.0000 0.0000
06:56 10.3 8.6 89 1014.1 0.0000 0.0000
07:06 10.2 8.3 88 1013.9 0.0000 0.0000
07:16 10.2 8.3 88 1014.2 0.0000 0.0000
07:26 10.1 8.2 88 1014.2 0.0000 0.0000
07:37 10.1 8.2 88 1014.2 0.0000 0.0000
07:46 10 8.1 88 1014.2 0.0000 0.0000
07:56 10 8.1 88 1014.3 0.0000 0.0000
08:06 10 8.1 88 1014.2 0.0000 0.0000
08:17 10 8.3 89 1014.4 0.0000 0.0000
08:27 10.2 8.3 88 1014.4 0.0000 0.0000
08:37 10.2 8.3 88 1014.7 0.0000 0.0000
08:47 10.4 8.5 88 1014.6 0.0000 0.0000
08:57 10.6 8.7 88 1014.5 0.0000 0.0000
09:07 10.8 8.7 87 1014.7 0.0000 0.0000
09:17 11.2 9.1 87 1014.7 0.0000 0.0000
09:28 11.8 9.4 85 1014.8 0.0000 0.0000
09:38 12.3 9.3 82 1014.9 0.0000 0.0000
09:47 12.7 9.3 80 1014.8 0.0000 0.0000
09:58 13.1 9.5 79 1014.9 0.0000 0.0000
10:08 13.5 9.6 77 1014.8 0.0000 0.0000
10:18 13.8 9.6 76 1014.7 0.1010 0.1000
10:28 14.2 9.6 74 1015 0.1010 0.1000
10:39 14.5 9.5 72 1015 0.1010 0.1000
10:48 14.7 9.7 72 1014.8 0.1010 0.1000
10:58 14.9 9.7 71 1015 0.1010 0.1000
11:08 15.1 9.9 71 1015.1 0.1010 0.1000
11:19 15.4 10 70 1015 0.0000 0.1000

DAY STATISTIC

2019-09-21
TEMPERATURE
AVERAGE
11.1
HIGH
15.4
11:19
LOW
10.0
07:46
PRESSURE
AVERAGE
1014.3
HIGH
1015.1
11:08
LOW
1013.9
05:55
DEWPOINT
AVERAGE
8.8
HIGH
10.0
11:19
LOW
8.1
07:46
HUMIDITY
AVERAGE
86
HIGH
90
04:54
LOW
70
11:19
PRECIPITATION
RAIN HOUR
0.1
RAIN DAY
0.1
TEMPERATURE (°C)
LOW
10.0
HIGH
15.4
AVERAGE
11.1
PRESSURE (hpa)
LOW
1013.9
HIGH
1015.1
AVERAGE
1014.3
DEVICE